createdAt,value
2023-02-23T09:21:55.195Z,16.40
2023-02-23T09:26:57.881Z,14.10
2023-02-23T09:32:00.360Z,14.10
2023-02-23T09:37:03.571Z,14.20
2023-02-23T09:42:32.212Z,14.20
2023-02-23T09:47:55.755Z,14.20
2023-02-23T09:53:40.882Z,14.20
2023-02-23T09:58:43.450Z,14.30
2023-02-23T10:04:36.062Z,14.80
2023-02-23T10:10:28.174Z,15.40
2023-02-23T10:16:22.166Z,16.20
2023-02-23T10:21:45.478Z,16.30
2023-02-23T10:27:00.884Z,16.40
2023-02-23T10:32:15.209Z,16.40
2023-02-23T10:37:20.044Z,16.00
2023-02-23T10:42:32.082Z,15.70
2023-02-23T10:47:36.613Z,15.80
2023-02-23T10:52:49.129Z,15.70
2023-02-23T10:58:08.398Z,16.00
2023-02-23T11:03:25.504Z,16.20
2023-02-23T11:08:34.603Z,16.40
2023-02-23T11:13:49.824Z,16.20
2023-02-23T11:19:04.990Z,16.20
2023-02-23T11:24:31.070Z,16.30
2023-02-23T11:29:46.957Z,16.50
2023-02-23T11:35:21.176Z,16.40
2023-02-23T11:40:31.883Z,16.90
2023-02-23T11:45:46.188Z,16.80
2023-02-23T11:50:50.516Z,16.60
2023-02-23T11:55:58.050Z,16.90
2023-02-23T12:01:17.331Z,17.40
2023-02-23T12:06:39.234Z,17.50
2023-02-23T12:11:48.777Z,17.00
2023-02-23T12:17:00.392Z,16.60
2023-02-23T12:22:29.585Z,16.50
2023-02-23T12:27:45.308Z,16.50
2023-02-23T12:33:21.699Z,16.50
2023-02-23T12:38:59.830Z,16.20
2023-02-23T12:44:37.976Z,16.10
2023-02-23T12:50:14.525Z,16.10
2023-02-23T12:55:30.056Z,16.10
2023-02-23T13:00:58.438Z,16.20
2023-02-23T13:06:23.586Z,16.30
2023-02-23T13:11:53.473Z,16.30
2023-02-23T13:17:33.103Z,16.30
2023-02-23T13:22:43.463Z,16.30
2023-02-23T13:27:55.364Z,16.10
2023-02-23T13:32:58.394Z,16.00
2023-02-23T13:38:32.305Z,15.90
2023-02-23T13:43:49.710Z,15.90
2023-02-23T13:49:28.575Z,15.70
2023-02-23T13:54:36.644Z,15.70
2023-02-23T13:59:45.648Z,15.70
2023-02-23T14:04:48.017Z,15.60
2023-02-23T14:10:06.709Z,15.60
2023-02-23T14:15:40.669Z,15.50
2023-02-23T14:20:53.179Z,15.50
2023-02-23T14:26:28.801Z,15.50
2023-02-23T14:31:31.997Z,15.50
2023-02-23T14:36:38.551Z,15.50
2023-02-23T14:41:51.480Z,15.50
2023-02-23T14:47:08.552Z,15.50
2023-02-23T14:52:36.144Z,15.50
2023-02-23T14:57:43.942Z,15.40
2023-02-23T15:03:05.805Z,15.40
2023-02-23T15:08:17.346Z,15.40
2023-02-23T15:18:44.280Z,15.30
2023-02-23T15:23:51.148Z,15.40
2023-02-23T15:28:53.774Z,15.40
2023-02-23T15:33:57.798Z,15.60
2023-02-23T15:39:05.233Z,15.60
2023-02-23T15:44:27.526Z,15.60
2023-02-23T15:49:37.981Z,15.40
2023-02-23T15:55:06.507Z,15.40
2023-02-23T16:00:32.743Z,15.30
2023-02-23T16:05:46.971Z,15.10
2023-02-23T16:10:57.751Z,15.10
2023-02-23T16:16:00.232Z,15.10
2023-02-23T16:21:04.865Z,15.00
2023-02-23T16:26:57.492Z,15.00
2023-02-23T16:32:04.134Z,14.90
2023-02-23T16:37:28.013Z,14.90
2023-02-23T16:42:36.030Z,14.90
2023-02-23T16:47:49.997Z,14.80
2023-02-23T16:52:53.497Z,14.80
2023-02-23T16:58:02.646Z,14.70
2023-02-23T17:03:16.464Z,14.70
2023-02-23T17:08:26.155Z,14.60
2023-02-23T17:13:33.290Z,14.70
2023-02-23T17:18:39.589Z,14.50
2023-02-23T17:23:48.380Z,14.50
2023-02-23T17:28:51.874Z,14.50
2023-02-23T17:33:55.389Z,14.50
2023-02-23T17:39:00.436Z,14.60
2023-02-23T17:44:05.786Z,14.70
2023-02-23T17:49:07.860Z,14.80
2023-02-23T17:54:10.962Z,14.80
2023-02-23T17:59:13.487Z,14.60
2023-02-23T18:04:16.653Z,14.60
2023-02-23T18:09:18.798Z,14.70
2023-02-23T18:14:20.881Z,14.70
2023-02-23T18:19:23.774Z,14.60
2023-02-23T20:05:49.460Z,14.10
2023-02-23T20:31:35.185Z,13.60
2023-02-23T20:36:37.750Z,13.00
2023-02-23T20:41:43.471Z,13.40
2023-02-23T20:46:45.732Z,13.30
2023-02-23T20:51:48.696Z,13.20
2023-02-23T20:56:58.935Z,12.90
2023-02-23T21:02:01.838Z,13.10
2023-02-23T21:07:36.666Z,12.90
2023-02-23T21:12:38.797Z,13.00
2023-02-23T21:17:42.306Z,13.30
2023-02-23T21:27:48.256Z,13.40
2023-02-23T21:32:53.233Z,13.60
2023-02-23T21:37:56.913Z,13.30
2023-02-23T21:43:00.568Z,13.40
2023-02-23T21:48:04.487Z,13.60
2023-02-23T21:53:07.712Z,13.60
2023-02-23T21:58:10.119Z,13.60
2023-02-23T22:03:12.618Z,13.60
2023-02-23T22:08:15.907Z,13.40
2023-02-23T22:13:18.090Z,13.20
2023-02-23T22:18:20.193Z,13.10
2023-02-23T22:23:22.389Z,13.10
2023-02-23T22:28:25.991Z,13.50
2023-02-23T22:33:28.061Z,13.50
2023-02-23T22:38:30.868Z,13.50
2023-02-23T22:43:34.401Z,13.60
2023-02-23T22:48:36.766Z,13.40
2023-02-23T22:53:39.672Z,13.30
2023-02-23T22:58:42.424Z,13.20
2023-02-23T23:03:46.695Z,13.30
2023-02-23T23:08:55.739Z,13.40
2023-02-23T23:14:03.253Z,13.50
2023-02-23T23:19:12.444Z,13.40
2023-02-23T23:24:15.674Z,13.00
